Time;durP1;ratioP1;P1;durP2;ratioP2;P2;SDS_P1;SDS_P2;PMS_P1;PMS_P2;Temp;Humidity;BMP_temperature;BMP_pressure;BME280_temperature;BME280_humidity;BME280_pressure;Samples;Min_cycle;Max_cycle;Signal;HPM_P1;HPM_P2
2022/10/21 00:00:55;;;;;;;19.38;11.98;;;17.60;99.90;;;;;;5074237;28;20060;-72
2022/10/21 00:03:25;;;;;;;21.83;10.38;;;17.60;99.90;;;;;;5085376;28;20055;-77
2022/10/21 00:05:54;;;;;;;18.98;10.20;;;17.60;99.90;;;;;;5041557;28;20052;-72
2022/10/21 00:08:22;;;;;;;16.08;9.57;;;17.60;99.90;;;;;;5071153;28;20055;-72
2022/10/21 00:10:56;;;;;;;16.98;9.77;;;17.60;99.90;;;;;;5055317;28;20133;-72
2022/10/21 00:13:25;;;;;;;17.98;11.45;;;17.60;99.90;;;;;;5090245;28;20063;-78
2022/10/21 00:16:19;;;;;;;23.38;11.73;;;17.60;99.90;;;;;;5092701;28;20062;-74
2022/10/21 00:18:48;;;;;;;21.17;12.65;;;17.50;99.90;;;;;;5080314;28;20216;-74
2022/10/21 00:21:19;;;;;;;20.88;12.27;;;17.60;99.90;;;;;;5068128;28;20062;-73
2022/10/21 00:23:48;;;;;;;21.45;11.82;;;17.50;99.90;;;;;;5072525;28;20063;-75
2022/10/21 00:26:17;;;;;;;25.73;12.70;;;17.50;99.90;;;;;;5084060;28;20432;-73
2022/10/21 00:28:46;;;;;;;23.77;13.65;;;17.50;99.90;;;;;;5059557;28;20519;-74
2022/10/21 00:31:15;;;;;;;28.48;16.65;;;17.50;99.90;;;;;;5059375;28;20047;-72
2022/10/21 00:33:42;;;;;;;40.13;20.20;;;17.50;99.90;;;;;;5075066;28;20104;-73
2022/10/21 00:36:13;;;;;;;31.85;19.83;;;17.40;99.90;;;;;;5058832;28;20139;-73
2022/10/21 00:38:44;;;;;;;34.65;18.00;;;17.40;99.90;;;;;;5055830;28;20060;-74
2022/10/21 00:41:14;;;;;;;30.20;15.07;;;17.40;99.90;;;;;;5067609;28;20052;-73
2022/10/21 00:44:12;;;;;;;17.38;10.50;;;17.40;99.90;;;;;;5055485;28;20036;-72
2022/10/21 00:46:48;;;;;;;13.75;7.95;;;17.30;99.90;;;;;;5046490;28;20182;-74
2022/10/21 00:49:26;;;;;;;16.10;7.50;;;17.30;99.90;;;;;;5062566;28;20140;-72
2022/10/21 00:51:59;;;;;;;8.23;5.32;;;17.20;99.90;;;;;;5042201;28;20090;-72
2022/10/21 00:54:28;;;;;;;9.55;5.28;;;17.20;99.90;;;;;;5080942;28;20384;-73
2022/10/21 00:56:57;;;;;;;8.13;5.50;;;17.10;99.90;;;;;;5075777;28;20072;-74
2022/10/21 00:59:30;;;;;;;9.80;5.35;;;17.10;99.90;;;;;;5080596;28;20043;-73
2022/10/21 01:01:58;;;;;;;7.75;4.57;;;17.10;99.90;;;;;;5075290;28;20471;-72
2022/10/21 01:04:26;;;;;;;9.85;6.40;;;17.00;99.90;;;;;;5078068;28;20048;-72
2022/10/21 01:06:54;;;;;;;15.77;6.90;;;17.00;99.90;;;;;;5076480;28;20048;-73
2022/10/21 01:09:24;;;;;;;10.90;6.93;;;16.90;99.90;;;;;;5076804;28;20486;-73
2022/10/21 01:11:52;;;;;;;13.27;6.78;;;16.80;99.90;;;;;;5078129;28;20048;-74
2022/10/21 01:14:43;;;;;;;13.73;9.45;;;16.80;99.90;;;;;;5090425;28;20047;-72
2022/10/21 01:17:24;;;;;;;14.43;8.25;;;16.70;99.90;;;;;;5063129;28;20440;-74
2022/10/21 01:20:44;;;;;;;14.60;7.60;;;16.70;99.90;;;;;;5099179;28;20131;-73
2022/10/21 01:23:52;;;;;;;11.43;7.70;;;16.60;99.90;;;;;;5060965;28;20052;-72
2022/10/21 01:27:03;;;;;;;10.63;6.82;;;16.50;99.90;;;;;;4985637;28;20598;-72
2022/10/21 01:30:08;;;;;;;15.02;7.05;;;16.40;99.90;;;;;;5022852;28;20048;-73
2022/10/21 01:32:58;;;;;;;11.40;6.68;;;16.40;99.90;;;;;;4985619;28;20806;-72
2022/10/21 01:35:37;;;;;;;10.80;6.80;;;16.40;99.90;;;;;;5055996;28;20110;-72
2022/10/21 01:38:49;;;;;;;9.85;6.88;;;16.40;99.90;;;;;;5075764;28;20025;-72
2022/10/21 01:41:22;;;;;;;8.88;7.32;;;16.40;99.90;;;;;;4952732;28;20061;-74
2022/10/21 01:44:09;;;;;;;9.45;6.75;;;16.40;99.90;;;;;;4955398;28;20047;-72
2022/10/21 01:46:48;;;;;;;8.13;6.75;;;16.30;99.90;;;;;;5039537;28;20055;-73
2022/10/21 01:49:29;;;;;;;20.95;7.35;;;16.30;99.90;;;;;;5094773;28;20044;-72
2022/10/21 01:51:59;;;;;;;12.40;8.40;;;16.30;99.90;;;;;;5078171;28;20067;-71
2022/10/21 01:54:33;;;;;;;13.02;7.82;;;16.30;99.90;;;;;;5079695;28;20141;-73
2022/10/21 01:57:03;;;;;;;10.10;6.78;;;16.30;99.90;;;;;;5082193;28;20036;-75
2022/10/21 01:59:32;;;;;;;10.75;6.63;;;16.30;99.90;;;;;;5049341;28;20135;-72
2022/10/21 02:02:03;;;;;;;10.13;6.35;;;16.30;99.90;;;;;;5061012;28;20156;-73
2022/10/21 02:04:33;;;;;;;10.95;5.75;;;16.30;99.90;;;;;;5066041;28;20105;-72
2022/10/21 02:07:01;;;;;;;10.25;5.38;;;16.30;99.90;;;;;;5078153;28;20048;-73
2022/10/21 02:09:29;;;;;;;8.05;5.00;;;16.40;99.90;;;;;;5080695;28;20052;-72
2022/10/21 02:12:01;;;;;;;6.97;4.43;;;16.40;99.90;;;;;;5083823;28;20044;-72
2022/10/21 02:14:44;;;;;;;8.00;4.35;;;16.40;99.90;;;;;;5062268;28;20570;-72
2022/10/21 02:17:16;;;;;;;5.93;4.22;;;16.40;99.90;;;;;;5088762;28;20052;-76
2022/10/21 02:19:46;;;;;;;8.50;5.15;;;16.50;99.90;;;;;;5072667;28;20167;-73
2022/10/21 02:22:18;;;;;;;8.65;4.40;;;16.50;99.90;;;;;;5090162;28;20386;-72
2022/10/21 02:25:06;;;;;;;7.35;4.75;;;16.50;99.90;;;;;;5091427;28;20123;-72
2022/10/21 02:27:34;;;;;;;7.15;4.68;;;16.60;99.90;;;;;;5089771;28;20498;-76
2022/10/21 02:30:02;;;;;;;7.78;4.38;;;16.60;99.90;;;;;;5090854;28;20411;-75
2022/10/21 02:32:44;;;;;;;8.70;4.82;;;16.70;99.90;;;;;;5089677;28;20052;-72
2022/10/21 02:35:37;;;;;;;8.82;4.47;;;16.70;99.90;;;;;;5090437;28;20100;-73
2022/10/21 02:38:25;;;;;;;8.07;5.07;;;16.70;99.90;;;;;;5090654;28;20405;-74
2022/10/21 02:41:01;;;;;;;9.07;5.68;;;16.70;99.90;;;;;;5090947;28;20052;-72
2022/10/21 02:43:34;;;;;;;8.38;5.25;;;16.70;99.90;;;;;;5056663;28;20059;-72
2022/10/21 02:46:11;;;;;;;8.65;5.45;;;16.70;99.90;;;;;;5089744;28;20048;-73
2022/10/21 02:48:42;;;;;;;12.65;5.55;;;16.70;99.90;;;;;;5089469;28;20132;-72
2022/10/21 02:51:10;;;;;;;10.75;6.20;;;16.70;99.90;;;;;;5091458;28;20050;-72
2022/10/21 02:53:39;;;;;;;12.85;6.78;;;16.70;99.90;;;;;;5055040;28;20502;-73
2022/10/21 02:56:07;;;;;;;11.18;6.35;;;16.70;99.90;;;;;;5090572;28;20052;-73
2022/10/21 02:58:35;;;;;;;15.38;7.38;;;16.70;99.90;;;;;;5089879;28;20101;-73
2022/10/21 03:01:03;;;;;;;11.90;7.10;;;16.70;99.90;;;;;;5090223;28;20048;-72
2022/10/21 03:03:30;;;;;;;16.60;8.48;;;16.70;99.90;;;;;;5088694;28;20115;-72
2022/10/21 03:05:58;;;;;;;10.63;7.40;;;16.70;99.90;;;;;;5055397;28;20046;-73
2022/10/21 03:08:26;;;;;;;17.40;7.70;;;16.70;99.90;;;;;;5072535;28;20063;-74
2022/10/21 03:10:53;;;;;;;13.32;6.68;;;16.70;99.90;;;;;;5088925;28;20043;-73
2022/10/21 03:13:22;;;;;;;11.52;7.25;;;16.70;99.90;;;;;;5088966;28;20056;-72
2022/10/21 03:15:50;;;;;;;10.35;6.28;;;16.60;99.90;;;;;;5089268;28;20470;-73
2022/10/21 03:18:18;;;;;;;11.30;6.28;;;16.60;99.90;;;;;;5089263;28;20117;-73
2022/10/21 03:20:50;;;;;;;9.90;6.25;;;16.60;99.90;;;;;;5089177;28;20512;-73
2022/10/21 03:23:19;;;;;;;6.72;4.72;;;16.60;99.90;;;;;;5071981;28;20050;-72
2022/10/21 03:25:47;;;;;;;7.43;5.63;;;16.50;99.90;;;;;;5088222;28;20036;-75
2022/10/21 03:28:19;;;;;;;8.77;4.90;;;16.50;99.90;;;;;;5084547;28;20064;-73
2022/10/21 03:30:46;;;;;;;7.50;4.72;;;16.50;99.90;;;;;;5070072;28;20052;-72
2022/10/21 03:33:14;;;;;;;5.93;4.97;;;16.50;99.90;;;;;;5069787;28;20052;-72
2022/10/21 03:35:42;;;;;;;7.65;4.97;;;16.40;99.90;;;;;;5068525;28;20058;-75
2022/10/21 03:38:09;;;;;;;7.88;5.03;;;16.40;99.90;;;;;;5068507;28;20051;-73
2022/10/21 03:40:37;;;;;;;6.85;4.80;;;16.40;99.90;;;;;;5051282;28;20048;-72
2022/10/21 03:43:05;;;;;;;8.75;5.65;;;16.40;99.90;;;;;;5079692;28;20059;-72
2022/10/21 03:45:33;;;;;;;10.10;5.35;;;16.30;99.90;;;;;;5088673;28;20093;-73
2022/10/21 03:48:01;;;;;;;14.02;6.18;;;16.30;99.90;;;;;;5088377;28;20062;-72
2022/10/21 03:50:29;;;;;;;8.00;5.55;;;16.30;99.90;;;;;;5088933;28;20078;-72
2022/10/21 03:52:58;;;;;;;9.10;5.85;;;16.30;99.90;;;;;;5055344;28;20056;-72
2022/10/21 03:55:26;;;;;;;8.90;5.82;;;16.30;99.90;;;;;;5071132;28;20056;-72
2022/10/21 03:57:54;;;;;;;8.18;5.25;;;16.30;99.90;;;;;;5088590;28;20475;-74
2022/10/21 04:00:22;;;;;;;19.25;6.10;;;16.30;99.90;;;;;;5071459;28;20121;-72
2022/10/21 04:02:51;;;;;;;7.93;5.80;;;16.30;99.90;;;;;;5071727;28;20048;-72
2022/10/21 04:05:19;;;;;;;8.48;6.20;;;16.30;99.90;;;;;;5071148;28;20084;-73
2022/10/21 04:07:47;;;;;;;8.63;6.68;;;16.30;99.90;;;;;;5054724;28;20059;-74
2022/10/21 04:10:15;;;;;;;8.65;6.00;;;16.30;99.90;;;;;;5089661;28;20040;-73
2022/10/21 04:12:43;;;;;;;9.45;6.55;;;16.30;99.90;;;;;;5088558;28;20068;-73
2022/10/21 04:15:13;;;;;;;10.23;7.07;;;16.30;99.90;;;;;;5071870;28;20067;-72
2022/10/21 04:17:40;;;;;;;9.55;4.95;;;16.20;99.90;;;;;;5088062;28;20048;-72
2022/10/21 04:20:10;;;;;;;9.15;5.85;;;16.20;99.90;;;;;;5087538;28;20048;-76
2022/10/21 04:22:37;;;;;;;7.68;5.45;;;16.20;99.90;;;;;;5080267;28;20146;-72
2022/10/21 04:25:05;;;;;;;9.68;5.70;;;16.20;99.90;;;;;;5070537;28;20059;-72
2022/10/21 04:27:33;;;;;;;8.25;5.60;;;16.20;99.90;;;;;;5074223;28;20641;-73
2022/10/21 04:30:01;;;;;;;8.07;4.95;;;16.20;99.90;;;;;;5094698;28;20093;-73
2022/10/21 04:32:29;;;;;;;7.70;5.32;;;16.20;99.90;;;;;;5076853;28;20051;-72
2022/10/21 04:34:57;;;;;;;9.48;6.10;;;16.20;99.90;;;;;;5082399;28;20040;-74
2022/10/21 04:37:24;;;;;;;10.20;6.53;;;16.30;99.90;;;;;;5083049;28;20084;-83
2022/10/21 04:39:52;;;;;;;8.38;6.35;;;16.20;99.90;;;;;;5081872;28;20082;-74
2022/10/21 04:42:20;;;;;;;10.02;6.45;;;16.30;99.90;;;;;;5087024;28;20508;-73
2022/10/21 04:44:48;;;;;;;9.40;5.75;;;16.30;99.90;;;;;;5065670;28;20067;-74
2022/10/21 04:47:15;;;;;;;9.02;5.70;;;16.30;99.90;;;;;;5053584;28;20151;-75
2022/10/21 04:49:43;;;;;;;9.48;5.35;;;16.30;99.90;;;;;;5071013;28;20391;-72
2022/10/21 04:52:11;;;;;;;8.30;5.80;;;16.30;99.90;;;;;;5088627;28;20060;-74
2022/10/21 04:54:39;;;;;;;10.48;7.28;;;16.30;99.90;;;;;;5069631;28;20070;-76
2022/10/21 04:57:06;;;;;;;9.75;7.03;;;16.40;99.90;;;;;;5086160;28;20052;-73
2022/10/21 04:59:34;;;;;;;10.43;7.78;;;16.40;99.90;;;;;;5090436;28;20060;-73
2022/10/21 05:02:02;;;;;;;8.85;6.45;;;16.30;99.90;;;;;;5088682;28;20109;-72
2022/10/21 05:04:29;;;;;;;12.60;7.57;;;16.30;99.90;;;;;;5087755;28;20040;-72
2022/10/21 05:06:57;;;;;;;8.57;6.00;;;16.30;99.90;;;;;;5070455;28;20040;-73
2022/10/21 05:09:25;;;;;;;21.23;5.95;;;16.30;99.90;;;;;;5087906;28;20070;-77
2022/10/21 05:11:52;;;;;;;12.50;6.35;;;16.40;99.90;;;;;;5083019;28;20546;-73
2022/10/21 05:14:20;;;;;;;11.10;6.55;;;16.40;99.90;;;;;;5083369;28;20075;-73
2022/10/21 05:16:48;;;;;;;8.65;5.85;;;16.40;99.90;;;;;;5082938;28;20044;-73
2022/10/21 05:19:16;;;;;;;11.32;6.90;;;16.40;99.90;;;;;;5072613;28;20494;-73
2022/10/21 05:21:45;;;;;;;10.80;6.47;;;16.50;99.90;;;;;;5071142;28;20278;-74
2022/10/21 05:24:15;;;;;;;9.27;6.45;;;16.50;99.90;;;;;;5090330;28;20036;-73
2022/10/21 05:26:42;;;;;;;8.20;6.00;;;16.50;99.90;;;;;;5073778;28;20048;-73
2022/10/21 05:29:10;;;;;;;8.98;6.25;;;16.50;99.90;;;;;;5055740;28;20159;-73
2022/10/21 05:31:38;;;;;;;8.15;5.20;;;16.50;99.90;;;;;;5087643;28;20040;-72
2022/10/21 05:34:06;;;;;;;9.18;6.43;;;16.60;99.90;;;;;;5089261;28;20051;-75
2022/10/21 05:36:34;;;;;;;10.63;6.45;;;16.70;99.90;;;;;;5074608;28;20098;-73
2022/10/21 05:39:02;;;;;;;9.10;6.45;;;16.80;99.90;;;;;;5053775;28;20509;-73
2022/10/21 05:41:29;;;;;;;9.50;6.75;;;16.80;99.90;;;;;;5054034;28;20046;-73
2022/10/21 05:43:57;;;;;;;13.48;7.07;;;17.00;99.90;;;;;;5038239;28;20060;-72
2022/10/21 05:46:25;;;;;;;12.63;7.60;;;17.10;99.90;;;;;;5054407;28;20048;-73
2022/10/21 05:48:53;;;;;;;13.88;7.43;;;17.20;99.90;;;;;;5055855;28;20405;-73
2022/10/21 05:51:25;;;;;;;9.70;6.53;;;17.30;99.90;;;;;;5074352;28;20037;-73
2022/10/21 05:53:53;;;;;;;13.55;6.85;;;17.40;99.90;;;;;;5091047;28;20052;-72
2022/10/21 05:56:21;;;;;;;8.90;6.60;;;17.60;99.90;;;;;;5090790;28;20192;-73
2022/10/21 05:58:50;;;;;;;9.60;6.65;;;17.80;99.90;;;;;;5074171;28;20447;-73
2022/10/21 06:01:18;;;;;;;9.80;6.35;;;18.00;99.90;;;;;;5074018;28;20370;-72
2022/10/21 06:03:46;;;;;;;9.10;7.00;;;18.30;99.90;;;;;;5073507;28;20048;-73
2022/10/21 06:06:14;;;;;;;9.45;6.35;;;18.50;99.90;;;;;;5073582;28;20489;-77
2022/10/21 06:08:41;;;;;;;9.63;6.57;;;18.80;99.90;;;;;;5057124;28;20047;-72
2022/10/21 06:11:12;;;;;;;10.70;7.80;;;19.10;99.90;;;;;;5085370;28;20220;-73
2022/10/21 06:13:41;;;;;;;11.32;7.55;;;19.40;99.90;;;;;;5078921;28;20122;-75
2022/10/21 06:16:11;;;;;;;10.27;6.65;;;19.80;99.90;;;;;;5072666;28;20138;-73
2022/10/21 06:18:40;;;;;;;11.02;6.53;;;20.20;99.90;;;;;;5092364;28;20478;-74
2022/10/21 06:21:09;;;;;;;11.45;7.00;;;20.60;99.90;;;;;;5089414;28;20401;-73
2022/10/21 06:23:37;;;;;;;12.75;7.45;;;21.00;99.90;;;;;;5090137;28;20044;-77
2022/10/21 06:26:06;;;;;;;11.63;7.10;;;21.50;99.90;;;;;;5082265;28;20131;-72
2022/10/21 06:28:36;;;;;;;11.98;7.60;;;21.80;99.90;;;;;;5091254;28;20040;-74
2022/10/21 06:31:05;;;;;;;13.63;6.75;;;22.30;99.90;;;;;;5091763;28;20052;-73
2022/10/21 06:33:33;;;;;;;12.98;7.13;;;22.70;99.90;;;;;;5089629;28;20040;-79
2022/10/21 06:36:01;;;;;;;8.85;6.38;;;23.00;99.90;;;;;;5068720;28;20044;-72
2022/10/21 06:38:31;;;;;;;10.90;6.63;;;23.20;99.90;;;;;;5085587;28;20048;-73
2022/10/21 06:41:04;;;;;;;9.93;6.72;;;23.20;99.90;;;;;;5086896;28;20043;-73
2022/10/21 06:43:33;;;;;;;20.92;6.65;;;23.10;99.90;;;;;;5071289;28;20063;-78
2022/10/21 06:46:04;;;;;;;11.15;5.97;;;23.00;99.90;;;;;;5082936;28;20112;-76
2022/10/21 06:48:32;;;;;;;10.38;5.63;;;22.90;99.90;;;;;;5071695;28;20048;-77
2022/10/21 06:51:10;;;;;;;11.63;5.05;;;22.90;99.90;;;;;;5088343;28;20772;-76
2022/10/21 06:53:38;;;;;;;8.40;5.72;;;22.90;99.90;;;;;;5089056;28;20102;-76
2022/10/21 06:56:17;;;;;;;10.27;5.25;;;23.10;99.90;;;;;;5086939;28;20044;-77
2022/10/21 06:58:47;;;;;;;13.13;6.88;;;23.20;99.90;;;;;;5074122;28;20237;-76
2022/10/21 07:01:19;;;;;;;12.20;7.13;;;23.40;99.90;;;;;;5073837;28;20040;-77
2022/10/21 07:03:53;;;;;;;11.57;6.72;;;23.60;99.90;;;;;;5090259;28;20048;-77
2022/10/21 07:06:21;;;;;;;10.93;5.72;;;23.70;99.90;;;;;;5071226;28;20044;-78
2022/10/21 07:08:49;;;;;;;10.95;7.05;;;23.70;99.90;;;;;;5073518;28;20069;-76
2022/10/21 07:11:24;;;;;;;13.93;5.70;;;23.70;99.90;;;;;;5057170;28;20082;-76
2022/10/21 07:13:52;;;;;;;10.27;6.55;;;23.70;99.90;;;;;;5079711;28;20139;-76
2022/10/21 07:16:47;;;;;;;6.78;5.15;;;23.80;99.90;;;;;;5078933;28;20165;-76
2022/10/21 07:19:14;;;;;;;11.38;6.43;;;23.70;99.90;;;;;;5088963;28;20052;-76
2022/10/21 07:21:43;;;;;;;9.60;6.63;;;23.70;99.90;;;;;;5091026;28;20044;-76
2022/10/21 07:24:10;;;;;;;12.57;7.47;;;23.80;99.90;;;;;;5056638;28;20467;-76
2022/10/21 07:26:38;;;;;;;11.70;7.68;;;23.80;99.90;;;;;;5091046;28;20463;-76
2022/10/21 07:29:07;;;;;;;9.15;6.90;;;23.80;99.90;;;;;;5071473;28;20044;-76
2022/10/21 07:31:36;;;;;;;11.85;6.15;;;23.90;99.90;;;;;;5090155;28;20068;-76
2022/10/21 07:34:07;;;;;;;7.50;5.20;;;24.00;99.90;;;;;;5072841;28;20047;-76
2022/10/21 07:36:40;;;;;;;9.00;5.65;;;24.10;99.90;;;;;;5073955;28;20063;-77
2022/10/21 07:39:12;;;;;;;9.82;5.03;;;24.10;99.90;;;;;;5089395;28;20413;-79
2022/10/21 07:41:43;;;;;;;5.15;4.00;;;24.30;99.90;;;;;;5090690;28;20063;-77
2022/10/21 07:44:11;;;;;;;7.35;4.07;;;24.30;99.90;;;;;;5083375;28;20059;-76
2022/10/21 07:46:40;;;;;;;6.70;3.70;;;24.40;99.90;;;;;;5039940;28;20071;-76
2022/10/21 07:49:10;;;;;;;4.80;3.75;;;24.50;99.90;;;;;;5069258;28;20036;-76
2022/10/21 07:51:38;;;;;;;7.70;4.20;;;24.60;99.90;;;;;;5073757;28;20098;-76
2022/10/21 07:54:07;;;;;;;4.97;3.70;;;24.70;99.90;;;;;;5087720;28;20040;-75
2022/10/21 07:56:39;;;;;;;11.02;4.18;;;24.80;99.90;;;;;;5070785;28;20658;-76
2022/10/21 07:59:07;;;;;;;6.15;3.92;;;24.80;99.90;;;;;;5082289;28;20433;-78
2022/10/21 08:01:42;;;;;;;6.68;3.42;;;24.90;99.90;;;;;;5069383;28;20036;-76
2022/10/21 08:04:17;;;;;;;7.47;4.45;;;25.00;99.90;;;;;;5081762;28;20574;-79
2022/10/21 08:06:45;;;;;;;4.22;2.83;;;25.00;99.90;;;;;;5084608;28;20039;-76
2022/10/21 08:09:15;;;;;;;6.00;3.53;;;25.10;99.90;;;;;;5069448;28;20059;-78
2022/10/21 08:11:42;;;;;;;6.38;4.57;;;25.20;99.90;;;;;;5075713;28;20049;-76
2022/10/21 08:14:11;;;;;;;8.52;4.10;;;25.30;99.90;;;;;;5087376;28;20032;-83
2022/10/21 08:16:40;;;;;;;5.18;4.13;;;25.40;99.90;;;;;;5082812;28;20047;-77
2022/10/21 08:19:14;;;;;;;4.47;3.55;;;25.40;99.90;;;;;;5087288;28;20676;-76
2022/10/21 08:21:41;;;;;;;9.52;4.63;;;25.50;99.90;;;;;;5087853;28;20327;-77
2022/10/21 08:24:09;;;;;;;5.78;3.30;;;25.60;99.90;;;;;;5087420;28;20046;-77
2022/10/21 08:26:37;;;;;;;5.60;3.78;;;25.60;99.90;;;;;;5088122;28;20104;-77
2022/10/21 08:29:04;;;;;;;5.78;3.38;;;25.70;99.90;;;;;;5070108;28;20075;-77
2022/10/21 08:31:32;;;;;;;5.85;4.13;;;25.70;99.90;;;;;;5084583;28;20060;-77
2022/10/21 08:34:00;;;;;;;5.50;3.78;;;25.80;99.90;;;;;;5087331;28;20048;-77
2022/10/21 08:36:28;;;;;;;8.80;4.70;;;25.80;99.90;;;;;;5085931;28;20071;-82
2022/10/21 08:38:57;;;;;;;5.50;4.00;;;25.80;99.90;;;;;;5066448;28;20066;-81
2022/10/21 08:41:38;;;;;;;6.15;3.70;;;25.90;99.90;;;;;;5065206;28;20093;-76
2022/10/21 08:44:23;;;;;;;6.18;3.60;;;26.00;99.90;;;;;;5082632;28;20045;-77
2022/10/21 08:47:17;;;;;;;6.97;3.60;;;26.10;99.90;;;;;;5056642;28;20050;-77
2022/10/21 08:50:11;;;;;;;4.65;3.30;;;26.20;99.90;;;;;;5072759;28;20062;-77
2022/10/21 08:52:49;;;;;;;4.95;3.50;;;26.30;99.90;;;;;;5085652;28;20043;-78
2022/10/21 08:55:22;;;;;;;7.45;4.00;;;26.40;99.90;;;;;;5084602;28;20058;-78
2022/10/21 08:57:54;;;;;;;6.43;3.88;;;26.40;99.90;;;;;;5081793;28;20048;-77
2022/10/21 09:00:36;;;;;;;6.28;3.88;;;26.30;99.90;;;;;;5064702;28;20044;-77
2022/10/21 09:03:31;;;;;;;5.35;3.67;;;26.20;99.90;;;;;;5100281;28;20155;-77
2022/10/21 09:06:33;;;;;;;6.28;3.65;;;25.80;99.90;;;;;;5080274;28;20052;-76
2022/10/21 09:09:22;;;;;;;6.93;3.03;;;25.50;99.90;;;;;;5068434;28;20161;-77
2022/10/21 09:12:08;;;;;;;5.88;3.63;;;25.50;99.30;;;;;;5069933;28;20044;-81
2022/10/21 09:14:55;;;;;;;3.95;2.85;;;25.10;98.20;;;;;;5085240;28;20036;-76
2022/10/21 09:17:57;;;;;;;4.63;3.28;;;24.90;98.50;;;;;;5059140;28;20059;-77
2022/10/21 09:20:45;;;;;;;6.18;3.55;;;24.90;99.30;;;;;;5081734;28;20052;-78
2022/10/21 09:23:35;;;;;;;6.85;3.83;;;24.50;99.80;;;;;;5077669;28;20074;-76
2022/10/21 09:26:34;;;;;;;8.02;3.70;;;24.80;99.90;;;;;;5085521;28;20474;-77
2022/10/21 09:29:15;;;;;;;4.80;2.90;;;25.10;99.60;;;;;;5076644;28;20044;-76
2022/10/21 09:31:44;;;;;;;6.25;3.70;;;25.60;98.70;;;;;;5082261;28;20598;-80
2022/10/21 09:34:36;;;;;;;6.28;3.78;;;25.90;97.80;;;;;;5080057;28;20032;-77
2022/10/21 09:37:05;;;;;;;4.47;3.13;;;26.00;97.00;;;;;;5079923;28;20045;-77
2022/10/21 09:39:40;;;;;;;5.15;3.47;;;25.70;97.60;;;;;;5084076;28;20043;-78
2022/10/21 09:42:11;;;;;;;5.25;3.30;;;25.40;97.70;;;;;;5070577;28;20040;-77
2022/10/21 09:44:44;;;;;;;5.88;3.33;;;25.50;97.70;;;;;;5083995;28;20044;-81
2022/10/21 09:47:23;;;;;;;4.88;2.83;;;25.80;97.80;;;;;;5066812;28;20458;-78
2022/10/21 09:49:56;;;;;;;5.97;3.15;;;26.10;97.70;;;;;;5062905;28;20494;-78
2022/10/21 09:52:47;;;;;;;4.55;3.13;;;26.30;97.20;;;;;;5083169;28;20453;-75
2022/10/21 09:55:15;;;;;;;5.05;3.55;;;26.60;96.70;;;;;;5067570;28;20048;-77
2022/10/21 09:58:02;;;;;;;4.15;2.85;;;26.70;96.40;;;;;;5082662;28;20303;-77
2022/10/21 10:00:49;;;;;;;4.90;2.88;;;26.80;95.70;;;;;;5066744;28;20066;-77
2022/10/21 10:03:44;;;;;;;5.55;3.30;;;26.60;95.00;;;;;;5064663;28;20116;-76
2022/10/21 10:06:12;;;;;;;8.25;2.83;;;26.50;95.20;;;;;;5068180;28;20164;-78
2022/10/21 10:08:43;;;;;;;5.15;2.95;;;26.70;95.00;;;;;;5072545;28;20079;-77
2022/10/21 10:11:12;;;;;;;5.45;3.08;;;26.10;93.90;;;;;;5088062;28;20063;-79
2022/10/21 10:13:46;;;;;;;3.58;2.63;;;26.00;93.70;;;;;;5088198;28;20047;-78
2022/10/21 10:16:27;;;;;;;4.28;2.67;;;25.90;93.50;;;;;;5087183;28;20095;-77
2022/10/21 10:19:19;;;;;;;3.28;2.17;;;25.80;92.70;;;;;;5086690;28;20105;-78
2022/10/21 10:22:14;;;;;;;3.78;2.60;;;25.60;92.40;;;;;;5092520;28;20046;-82
2022/10/21 10:24:43;;;;;;;4.78;2.88;;;25.80;92.30;;;;;;5081992;28;20047;-77
2022/10/21 10:27:22;;;;;;;3.58;2.38;;;26.00;92.10;;;;;;5076162;28;20044;-76
2022/10/21 10:29:54;;;;;;;5.25;3.08;;;26.20;91.60;;;;;;5087384;28;20433;-76
2022/10/21 10:32:25;;;;;;;3.17;2.35;;;26.20;91.00;;;;;;5074339;28;20060;-79
2022/10/21 10:34:56;;;;;;;6.90;2.78;;;26.20;90.90;;;;;;5063198;28;20096;-77
2022/10/21 10:37:27;;;;;;;4.20;2.63;;;26.40;90.70;;;;;;5098725;28;20134;-76
2022/10/21 10:39:57;;;;;;;4.20;3.33;;;26.50;91.40;;;;;;5086491;28;20044;-77
2022/10/21 10:42:36;;;;;;;7.68;3.00;;;26.30;91.00;;;;;;5070149;28;20101;-76
2022/10/21 10:45:11;;;;;;;3.78;2.28;;;26.20;90.50;;;;;;5102477;27;20498;-79
2022/10/21 10:47:49;;;;;;;5.60;2.80;;;26.10;90.90;;;;;;5071310;28;20032;-77
2022/10/21 10:50:41;;;;;;;4.55;3.15;;;25.90;90.10;;;;;;5087148;28;20044;-78
2022/10/21 10:53:27;;;;;;;5.10;2.90;;;26.10;91.10;;;;;;5067219;28;20044;-79
2022/10/21 10:56:01;;;;;;;5.00;2.78;;;26.30;91.60;;;;;;5067952;28;20393;-78
2022/10/21 10:58:33;;;;;;;5.32;2.53;;;26.60;91.20;;;;;;5085118;28;20056;-77
2022/10/21 11:01:07;;;;;;;4.85;2.95;;;26.40;91.30;;;;;;5069907;28;20043;-78
2022/10/21 11:03:54;;;;;;;4.30;2.70;;;26.30;91.70;;;;;;5087212;28;20079;-76
2022/10/21 11:06:33;;;;;;;8.77;3.95;;;26.50;92.00;;;;;;5066410;28;20040;-77
2022/10/21 11:09:02;;;;;;;4.45;2.92;;;26.50;91.60;;;;;;5085800;28;20129;-81
2022/10/21 11:11:40;;;;;;;4.68;3.00;;;26.30;91.40;;;;;;5083745;28;20048;-78
2022/10/21 11:14:16;;;;;;;4.60;3.67;;;25.90;91.30;;;;;;5079528;28;20036;-76
2022/10/21 11:17:12;;;;;;;3.60;2.38;;;26.00;91.70;;;;;;5068126;28;20055;-75
2022/10/21 11:19:49;;;;;;;4.55;2.83;;;26.00;91.50;;;;;;5076924;28;20051;-75
2022/10/21 11:22:26;;;;;;;4.25;2.75;;;25.80;91.40;;;;;;5068890;28;20036;-75
2022/10/21 11:24:55;;;;;;;7.18;3.20;;;25.90;91.70;;;;;;5067721;28;20056;-74
2022/10/21 11:27:42;;;;;;;4.75;2.97;;;25.90;91.70;;;;;;5082429;28;20036;-79
2022/10/21 11:30:16;;;;;;;;;;;26.00;91.70;;;;;;5046053;28;20106;-74
2022/10/21 11:32:44;;;;;;;5.50;2.83;;;26.10;91.70;;;;;;5073293;28;19927;-74
2022/10/21 11:35:40;;;;;;;7.22;2.67;;;26.10;92.00;;;;;;5098001;28;20676;-75
2022/10/21 11:38:11;;;;;;;11.35;3.10;;;26.10;91.60;;;;;;5076167;28;20044;-75
2022/10/21 11:40:51;;;;;;;13.38;3.50;;;26.20;92.10;;;;;;5054254;28;20134;-76
2022/10/21 11:43:41;;;;;;;5.03;3.13;;;26.10;91.80;;;;;;5070767;28;20371;-76
2022/10/21 11:46:27;;;;;;;4.97;3.00;;;26.00;92.20;;;;;;5086559;28;20432;-76
2022/10/21 11:49:09;;;;;;;4.55;3.25;;;26.20;92.20;;;;;;5082690;28;20048;-76
2022/10/21 11:51:47;;;;;;;80.43;72.78;;;26.30;92.30;;;;;;5065816;28;20056;-76
2022/10/21 11:54:31;;;;;;;19.00;15.85;;;26.30;92.30;;;;;;5053846;28;20055;-76
2022/10/21 11:57:14;;;;;;;6.60;4.30;;;26.20;92.20;;;;;;5078708;28;20110;-77
2022/10/21 12:00:19;;;;;;;11.32;4.40;;;26.30;92.30;;;;;;5087031;28;20050;-76
2022/10/21 12:02:59;;;;;;;4.97;3.28;;;26.40;92.20;;;;;;5058940;28;20487;-78
2022/10/21 12:05:35;;;;;;;4.80;2.67;;;26.40;92.10;;;;;;5088765;28;20119;-77
2022/10/21 12:08:10;;;;;;;32.97;28.30;;;26.40;92.20;;;;;;5088586;28;20066;-78
2022/10/21 12:10:56;;;;;;;77.43;68.47;;;26.20;92.30;;;;;;5054190;28;20451;-75
2022/10/21 12:13:33;;;;;;;62.42;48.63;;;26.00;92.20;;;;;;5088160;28;20854;-76
2022/10/21 12:16:08;;;;;;;57.20;44.45;;;25.80;95.00;;;;;;5073700;28;20192;-77
2022/10/21 12:18:53;;;;;;;19.27;13.82;;;25.80;95.70;;;;;;5087591;28;20140;-76
2022/10/21 12:21:26;;;;;;;172.55;129.13;;;25.80;96.00;;;;;;5070333;28;20035;-76
2022/10/21 12:24:04;;;;;;;39.60;28.30;;;25.60;96.30;;;;;;5084211;28;20040;-76
2022/10/21 12:26:44;;;;;;;7.07;4.13;;;25.60;96.50;;;;;;5066080;28;20105;-76
2022/10/21 12:29:49;;;;;;;3.97;2.97;;;25.40;96.30;;;;;;5087485;28;20044;-76
2022/10/21 12:32:42;;;;;;;4.22;2.97;;;25.60;96.60;;;;;;5087014;28;20105;-76
2022/10/21 12:35:23;;;;;;;4.50;3.00;;;25.80;96.30;;;;;;5051753;28;20057;-76
2022/10/21 12:37:51;;;;;;;6.78;2.90;;;25.80;96.10;;;;;;5053545;28;20117;-75
2022/10/21 12:40:25;;;;;;;4.22;2.92;;;25.80;96.20;;;;;;5062110;28;20558;-76
2022/10/21 12:43:21;;;;;;;3.83;2.45;;;25.80;96.20;;;;;;5066462;28;20032;-77
2022/10/21 12:46:22;;;;;;;4.97;3.50;;;25.80;96.30;;;;;;5079134;28;20577;-75
2022/10/21 12:48:51;;;;;;;4.70;2.95;;;25.80;96.60;;;;;;5099725;28;20040;-75
2022/10/21 12:51:26;;;;;;;4.55;2.80;;;25.80;96.70;;;;;;5053931;28;20044;-77
2022/10/21 12:54:01;;;;;;;5.93;2.83;;;25.80;96.90;;;;;;5054351;28;20149;-76
2022/10/21 12:56:32;;;;;;;6.00;3.40;;;25.80;96.80;;;;;;5087374;28;20048;-77
2022/10/21 12:59:06;;;;;;;4.53;2.85;;;25.70;97.00;;;;;;5069084;28;20294;-77
2022/10/21 13:02:09;;;;;;;6.15;3.20;;;25.50;97.30;;;;;;5054282;28;20116;-76
2022/10/21 13:04:47;;;;;;;5.20;3.40;;;25.40;97.50;;;;;;5100089;28;20040;-77
2022/10/21 13:07:18;;;;;;;4.65;3.25;;;25.30;97.80;;;;;;5080428;28;20047;-77
2022/10/21 13:09:55;;;;;;;5.55;3.25;;;25.30;97.90;;;;;;5086915;28;20395;-78
2022/10/21 13:12:23;;;;;;;5.30;3.42;;;25.00;98.10;;;;;;5085215;28;20048;-77
2022/10/21 13:14:57;;;;;;;6.25;3.10;;;24.80;98.30;;;;;;5087602;28;20440;-76
2022/10/21 13:17:48;;;;;;;6.55;3.28;;;24.70;98.60;;;;;;5066547;28;20052;-82
2022/10/21 13:20:19;;;;;;;6.53;3.25;;;24.80;98.90;;;;;;5075851;28;20109;-77